This is the latest recevied weather packets stored in our database for station/object VE3EP-1. If no packets are shown the sender has not sent any weather packets the latest 10 day(s).
| Time | Temp. | Humidity | Pressure | Rain* | Wind** | Luminosity | Snow |
|---|---|---|---|---|---|---|---|
| 1777993928 | 12.22° C | 75% | 1004.9 hPa | 0 mm | - | - | - |
| 1777993328 | 12.78° C | 75% | 1004.9 hPa | 0 mm | - | - | - |
| 1777992728 | 13.33° C | 74% | 1004.8 hPa | 0 mm | - | - | - |
| 1777990928 | 15° C | 71% | 1004.2 hPa | 0 mm | - | - | - |
| 1777987328 | 16.67° C | 68% | 1003.9 hPa | 0 mm | - | - | - |
| 1777985528 | 15° C | 72% | 1003.6 hPa | 0 mm | - | - | - |
| 1777984928 | 14.44° C | 72% | 1003.5 hPa | 0 mm | - | - | - |
| 1777980729 | 15° C | 73% | 1003.2 hPa | 0 mm | - | - | - |
| 1777980129 | 14.44° C | 74% | 1003.2 hPa | 0 mm | - | - | - |
| 1777979528 | 13.89° C | 77% | 1003.2 hPa | 0 mm | - | - | - |
| 1777978929 | 13.33° C | 78% | 1002.8 hPa | 0 mm | - | - | - |
| 1777978329 | 13.33° C | 77% | 1003 hPa | 0 mm | - | - | - |
| 1777977729 | 13.33° C | 77% | 1002.9 hPa | 0 mm | - | - | - |
| 1777977128 | 13.33° C | 77% | 1002.8 hPa | 0 mm | - | - | - |
| 1777976529 | 13.33° C | 76% | 1002.5 hPa | 0 mm | - | - | - |
| 1777975929 | 13.89° C | 75% | 1002.5 hPa | 0 mm | - | - | - |
| 1777974729 | 14.44° C | 75% | 1002.4 hPa | 0 mm | - | - | - |
| 1777974129 | 14.44° C | 75% | 1002.4 hPa | 0 mm | - | - | - |
| 1777973528 | 13.89° C | 78% | 1002.4 hPa | 0 mm | - | - | - |
| 1777972928 | 12.22° C | 84% | 1002.6 hPa | 0 mm | - | - | - |
| 1777972328 | 12.22° C | 84% | 1002.9 hPa | 0 mm | - | - | - |
| 1777971129 | 12.22° C | 85% | 1002.8 hPa | 1.27 mm | - | - | - |
| 1777970529 | 12.22° C | 85% | 1002.8 hPa | 1.52 mm | - | - | - |
| 1777969929 | 12.22° C | 84% | 1002.9 hPa | 1.52 mm | - | - | - |
| 1777969328 | 13.33° C | 83% | 1002.8 hPa | 1.52 mm | - | - | - |
* Rain latest hour (hover to see other rain measurements)
** Current wind speed in m/s (hover to see current wind gust speed)